Time;durP1;ratioP1;P1;durP2;ratioP2;P2;SDS_P1;SDS_P2;PMS_P1;PMS_P2;Temp;Humidity;BMP_temperature;BMP_pressure;BME280_temperature;BME280_humidity;BME280_pressure;Samples;Min_cycle;Max_cycle;Signal;HPM_P1;HPM_P2
2021/12/03 00:00:56;;;;;;;;;;;;;;;5.38;100.00;98238.69;5073709;28;19999;-78
2021/12/03 00:03:24;;;;;;;;;;;;;;;4.86;100.00;98234.31;5040968;28;19924;-80
2021/12/03 00:05:52;;;;;;;;;;;;;;;4.82;100.00;98230.78;5073613;28;20510;-78
2021/12/03 00:08:19;;;;;;;;;;;;;;;4.90;100.00;98235.09;5073584;28;19943;-78
2021/12/03 00:10:53;;;;;;;;;;;;;;;5.36;100.00;98223.66;5056935;28;19989;-80
2021/12/03 00:13:21;;;;;;;;;;;;;;;5.58;100.00;98213.94;5073367;28;19924;-80
2021/12/03 00:15:48;;;;;;;;;;;;;;;5.82;100.00;98203.81;5040433;28;19942;-80
2021/12/03 00:18:15;;;;;;;;;;;;;;;5.55;100.00;98198.94;5074798;28;19983;-80
2021/12/03 00:20:42;;;;;;;;;;;;;;;5.67;100.00;98199.59;5073534;28;20359;-80
2021/12/03 00:23:09;;;;;;;;;;;;;;;5.85;100.00;98189.94;5073272;28;19921;-80
2021/12/03 00:25:36;;;;;;;;;;;;;;;5.98;100.00;98168.81;5056826;28;19921;-80
2021/12/03 00:28:03;;;;;;;;;;;;;;;5.57;100.00;98168.81;5056754;28;19920;-80
2021/12/03 00:30:32;;;;;;;;;;;;;;;5.59;100.00;98158.13;5074379;28;19920;-79
2021/12/03 00:33:00;;;;;;;;;;;;;;;5.53;100.00;98150.66;5056385;28;19966;-80
2021/12/03 00:35:26;;;;;;;;;;;;;;;6.06;100.00;98144.56;5073191;28;19920;-80
2021/12/03 00:37:53;;;;;;;;;;;;;;;5.93;100.00;98135.19;5056395;28;19951;-79
2021/12/03 00:40:23;;;;;;;;;;;;;;;6.02;100.00;98121.59;5074229;28;19927;-80
2021/12/03 00:42:50;;;;;;;;;;;;;;;5.52;100.00;98127.72;5074359;28;20023;-80
2021/12/03 00:45:17;;;;;;;;;;;;;;;5.69;100.00;98119.59;5056561;28;20359;-79
2021/12/03 00:47:44;;;;;;;;;;;;;;;5.75;100.00;98117.97;5074215;28;19956;-80
2021/12/03 00:50:13;;;;;;;;;;;;;;;5.82;100.00;98117.88;5073174;28;20006;-80
2021/12/03 00:52:40;;;;;;;;;;;;;;;5.62;100.00;98114.94;5039592;28;20026;-80
2021/12/03 00:55:08;;;;;;;;;;;;;;;5.73;100.00;98100.94;5072905;28;19920;-80
2021/12/03 00:57:35;;;;;;;;;;;;;;;5.58;100.00;98092.81;5072841;28;19920;-80
2021/12/03 01:00:04;;;;;;;;;;;;;;;5.52;100.00;98083.38;5072880;28;19928;-80
2021/12/03 01:02:31;;;;;;;;;;;;;;;5.64;100.00;98095.91;5072647;28;19921;-80
2021/12/03 01:04:58;;;;;;;;;;;;;;;5.39;100.00;98084.34;5074112;28;20002;-80
2021/12/03 01:07:25;;;;;;;;;;;;;;;5.33;100.00;98070.13;5055746;28;19946;-80
2021/12/03 01:09:52;;;;;;;;;;;;;;;5.42;100.00;98092.59;5039677;28;19928;-79
2021/12/03 01:12:19;;;;;;;;;;;;;;;5.72;100.00;98080.78;5057396;28;19970;-78
2021/12/03 01:14:46;;;;;;;;;;;;;;;5.59;100.00;98079.72;5059502;28;20001;-79
2021/12/03 01:17:13;;;;;;;;;;;;;;;6.03;100.00;98067.75;5094121;28;19920;-79
2021/12/03 01:19:41;;;;;;;;;;;;;;;6.03;100.00;98062.19;5042769;28;19920;-79
2021/12/03 01:22:08;;;;;;;;;;;;;;;5.95;100.00;98074.56;5075823;28;19920;-80
2021/12/03 01:24:35;;;;;;;;;;;;;;;5.79;100.00;98057.72;5076187;28;19924;-80
2021/12/03 01:27:02;;;;;;;;;;;;;;;5.72;100.00;98049.50;5093935;28;20274;-79
2021/12/03 01:29:29;;;;;;;;;;;;;;;5.74;100.00;98049.88;5059238;28;19977;-80
2021/12/03 01:31:57;;;;;;;;;;;;;;;5.92;100.00;98040.16;5094087;28;19977;-79
2021/12/03 01:34:24;;;;;;;;;;;;;;;5.39;100.00;98035.25;5075892;28;19920;-80
2021/12/03 01:36:51;;;;;;;;;;;;;;;5.87;100.00;98023.97;5059105;28;20026;-79
2021/12/03 01:39:18;;;;;;;;;;;;;;;5.45;100.00;98013.44;5075891;28;19942;-79
2021/12/03 01:41:45;;;;;;;;;;;;;;;5.84;100.00;98004.63;5059129;28;20325;-79
2021/12/03 01:44:12;;;;;;;;;;;;;;;5.80;100.00;98006.63;5026063;28;20081;-80
2021/12/03 01:46:39;;;;;;;;;;;;;;;6.04;100.00;98006.31;5093916;28;20369;-80
2021/12/03 01:49:06;;;;;;;;;;;;;;;5.56;100.00;97995.47;5089554;28;20049;-79
2021/12/03 01:51:33;;;;;;;;;;;;;;;5.96;100.00;97995.72;5078477;28;20337;-80
2021/12/03 01:54:00;;;;;;;;;;;;;;;5.98;100.00;97996.09;5095796;28;20026;-79
2021/12/03 01:56:27;;;;;;;;;;;;;;;5.42;100.00;97979.00;5113956;28;19920;-80
2021/12/03 01:58:56;;;;;;;;;;;;;;;5.51;100.00;97976.53;5079389;28;19969;-80
2021/12/03 02:01:26;;;;;;;;;;;;;;;5.67;100.00;97977.91;5096002;28;19933;-80
2021/12/03 02:03:55;;;;;;;;;;;;;;;5.60;100.00;97976.78;5062252;28;19920;-80
2021/12/03 02:06:23;;;;;;;;;;;;;;;5.89;100.00;97968.13;5078798;28;20002;-80
2021/12/03 02:08:51;;;;;;;;;;;;;;;5.83;100.00;97967.03;5098671;28;20333;-80
2021/12/03 02:11:18;;;;;;;;;;;;;;;5.92;100.00;97958.97;5082491;28;19968;-80
2021/12/03 02:13:45;;;;;;;;;;;;;;;5.89;100.00;97957.03;5082578;28;20011;-80
2021/12/03 02:16:13;;;;;;;;;;;;;;;5.82;100.00;97951.56;5082566;28;20328;-80
2021/12/03 02:18:41;;;;;;;;;;;;;;;5.94;100.00;97945.47;5099100;28;20376;-80
2021/12/03 02:24:25;;;;;;;;;;;;;;;6.39;100.00;97930.06;5082218;28;19923;-80
2021/12/03 02:26:52;;;;;;;;;;;;;;;6.27;100.00;97916.81;5099213;28;19926;-80
2021/12/03 02:29:19;;;;;;;;;;;;;;;6.50;100.00;97914.78;5099318;28;19920;-80
2021/12/03 02:31:48;;;;;;;;;;;;;;;6.54;100.00;97909.19;5082599;28;19969;-80
2021/12/03 02:34:15;;;;;;;;;;;;;;;6.46;100.00;97908.53;5116658;28;20389;-80
2021/12/03 02:36:42;;;;;;;;;;;;;;;6.66;100.00;97911.34;5098992;28;20426;-80
2021/12/03 02:39:09;;;;;;;;;;;;;;;6.79;100.00;97915.84;5098903;28;19920;-80
2021/12/03 02:41:36;;;;;;;;;;;;;;;6.48;100.00;97899.78;5082074;28;19963;-80
2021/12/03 02:44:03;;;;;;;;;;;;;;;6.61;100.00;97903.50;5081863;28;19966;-80
2021/12/03 02:46:30;;;;;;;;;;;;;;;7.11;100.00;97898.53;5081931;28;19955;-80
2021/12/03 02:48:57;;;;;;;;;;;;;;;7.22;100.00;97888.00;5098366;28;19923;-80
2021/12/03 02:51:24;;;;;;;;;;;;;;;7.09;100.00;97889.84;5081993;28;19957;-80
2021/12/03 02:53:51;;;;;;;;;;;;;;;7.14;100.00;97873.47;5098365;28;19920;-80
2021/12/03 02:56:18;;;;;;;;;;;;;;;6.45;100.00;97872.88;5065053;28;20027;-80
2021/12/03 02:58:45;;;;;;;;;;;;;;;6.57;100.00;97866.72;5081749;28;19959;-80
2021/12/03 03:01:12;;;;;;;;;;;;;;;7.13;100.00;97854.44;5098346;28;19973;-80
2021/12/03 03:03:39;;;;;;;;;;;;;;;7.27;100.00;97845.78;5064942;28;19920;-80
2021/12/03 03:06:08;;;;;;;;;;;;;;;7.15;100.00;97829.78;5098513;28;20324;-80
2021/12/03 03:08:36;;;;;;;;;;;;;;;6.92;100.00;97814.00;5064581;28;20358;-80
2021/12/03 03:11:06;;;;;;;;;;;;;;;6.65;100.00;97807.09;5098466;28;19967;-80
2021/12/03 03:13:34;;;;;;;;;;;;;;;6.73;100.00;97800.16;5081176;28;20319;-80
2021/12/03 03:16:01;;;;;;;;;;;;;;;6.93;100.00;97793.38;5116291;28;19919;-80
2021/12/03 03:18:29;;;;;;;;;;;;;;;6.78;100.00;97792.13;5064445;28;19927;-81
2021/12/03 03:20:58;;;;;;;;;;;;;;;6.32;100.00;97778.41;5098213;28;20011;-80
2021/12/03 03:23:25;;;;;;;;;;;;;;;6.82;100.00;97756.72;5097915;28;19924;-80
2021/12/03 03:25:52;;;;;;;;;;;;;;;6.68;100.00;97753.50;5098024;28;20339;-80
2021/12/03 03:28:22;;;;;;;;;;;;;;;6.68;100.00;97751.47;5097854;28;19969;-80
2021/12/03 03:30:50;;;;;;;;;;;;;;;6.84;100.00;97747.97;5081248;28;19950;-80
2021/12/03 03:33:17;;;;;;;;;;;;;;;6.71;100.00;97733.22;5115688;28;19919;-80
2021/12/03 03:35:44;;;;;;;;;;;;;;;7.03;100.00;97722.16;5097675;28;19932;-80
2021/12/03 03:38:11;;;;;;;;;;;;;;;6.91;100.00;97725.59;5080865;28;19988;-80
2021/12/03 03:40:39;;;;;;;;;;;;;;;6.89;100.00;97719.72;5097567;28;20362;-80
2021/12/03 03:43:07;;;;;;;;;;;;;;;7.00;100.00;97714.69;5080828;28;19923;-80
2021/12/03 03:45:35;;;;;;;;;;;;;;;7.00;100.00;97709.91;5097571;28;19927;-80
2021/12/03 03:48:02;;;;;;;;;;;;;;;6.83;100.00;97718.66;5063746;28;20026;-80
2021/12/03 03:50:29;;;;;;;;;;;;;;;7.11;100.00;97723.56;5115477;28;20235;-79
2021/12/03 03:52:56;;;;;;;;;;;;;;;6.99;100.00;97713.91;5097246;28;20289;-80
2021/12/03 03:55:24;;;;;;;;;;;;;;;7.10;100.00;97727.56;5080571;28;19947;-80
2021/12/03 03:57:53;;;;;;;;;;;;;;;6.78;100.00;97719.94;5080577;28;20257;-80
2021/12/03 04:00:22;;;;;;;;;;;;;;;6.71;100.00;97728.41;5080294;28;19927;-80
2021/12/03 04:02:49;;;;;;;;;;;;;;;6.86;100.00;97726.13;5079984;28;20010;-80
2021/12/03 04:05:16;;;;;;;;;;;;;;;6.61;100.00;97731.41;5063783;28;19926;-80
2021/12/03 04:07:43;;;;;;;;;;;;;;;6.83;100.00;97724.22;5080448;28;19926;-80
2021/12/03 04:10:10;;;;;;;;;;;;;;;6.88;100.00;97720.91;5115541;28;19927;-80
2021/12/03 04:12:38;;;;;;;;;;;;;;;7.06;100.00;97718.50;5079820;28;19919;-80
2021/12/03 04:15:08;;;;;;;;;;;;;;;7.61;100.00;97710.00;5096888;28;19969;-80
2021/12/03 04:17:35;;;;;;;;;;;;;;;7.35;100.00;97697.16;5080085;28;19921;-80
2021/12/03 04:20:04;;;;;;;;;;;;;;;6.16;100.00;97705.44;5080425;28;19920;-80
2021/12/03 04:22:32;;;;;;;;;;;;;;;5.63;100.00;97713.94;5115044;28;19919;-80
2021/12/03 04:25:00;;;;;;;;;;;;;;;5.33;100.00;97706.53;5079924;28;20015;-80
2021/12/03 04:27:27;;;;;;;;;;;;;;;5.36;100.00;97706.47;5114794;28;19923;-80
2021/12/03 04:29:54;;;;;;;;;;;;;;;5.48;100.00;97696.78;5079696;28;19920;-80
2021/12/03 04:32:24;;;;;;;;;;;;;;;5.31;100.00;97689.56;5096279;28;19920;-80
2021/12/03 04:34:52;;;;;;;;;;;;;;;5.35;100.00;97674.44;5079940;28;20018;-80
2021/12/03 04:37:20;;;;;;;;;;;;;;;4.84;100.00;97683.22;5114742;28;19920;-80
2021/12/03 04:39:47;;;;;;;;;;;;;;;4.82;100.00;97687.56;5096779;28;19980;-80
2021/12/03 04:42:14;;;;;;;;;;;;;;;4.73;100.00;97679.81;5096525;28;19955;-80
2021/12/03 04:44:41;;;;;;;;;;;;;;;4.79;100.00;97686.44;5079580;28;19926;-80
2021/12/03 04:47:08;;;;;;;;;;;;;;;5.30;100.00;97677.69;5079815;28;20351;-80
2021/12/03 04:49:36;;;;;;;;;;;;;;;5.16;100.00;97677.16;5079647;28;19998;-79
2021/12/03 04:52:03;;;;;;;;;;;;;;;5.12;100.00;97671.66;5079754;28;19934;-80
2021/12/03 04:54:30;;;;;;;;;;;;;;;4.84;100.00;97666.59;5079819;28;19953;-80
2021/12/03 04:56:58;;;;;;;;;;;;;;;4.84;100.00;97666.59;5096478;28;19923;-79
2021/12/03 04:59:25;;;;;;;;;;;;;;;5.02;100.00;97660.78;5084885;28;20014;-79
2021/12/03 05:01:55;;;;;;;;;;;;;;;4.95;100.00;97650.59;5059140;28;20366;-80
2021/12/03 05:04:23;;;;;;;;;;;;;;;4.88;100.00;97631.34;5075882;28;19933;-79
2021/12/03 05:07:27;;;;;;;;;;;;;;;4.84;100.00;97633.38;5076101;28;19924;-79
2021/12/03 05:09:53;;;;;;;;;;;;;;;4.94;100.00;97613.06;5094025;28;19920;-80
2021/12/03 05:12:19;;;;;;;;;;;;;;;5.14;100.00;97622.19;5059257;28;19920;-80
2021/12/03 05:14:47;;;;;;;;;;;;;;;5.55;100.00;97617.09;5075673;28;20353;-80
2021/12/03 05:17:14;;;;;;;;;;;;;;;5.13;100.00;97606.81;5059242;28;19974;-80
2021/12/03 05:19:41;;;;;;;;;;;;;;;5.25;100.00;97603.44;5059348;28;20351;-80
2021/12/03 05:22:08;;;;;;;;;;;;;;;5.38;100.00;97592.50;5093885;28;19924;-80
2021/12/03 05:24:35;;;;;;;;;;;;;;;5.45;100.00;97595.91;5076157;28;19920;-80
2021/12/03 05:27:02;;;;;;;;;;;;;;;5.81;100.00;97597.97;5076000;28;19993;-80
2021/12/03 05:29:28;;;;;;;;;;;;;;;5.70;100.00;97591.88;5075790;28;19926;-80
2021/12/03 05:31:55;;;;;;;;;;;;;;;6.04;100.00;97592.38;5093694;28;19920;-80
2021/12/03 05:34:27;;;;;;;;;;;;;;;6.02;100.00;97590.03;5059201;28;19924;-80
2021/12/03 05:36:54;;;;;;;;;;;;;;;6.29;100.00;97585.09;5076024;28;19927;-80
2021/12/03 05:39:21;;;;;;;;;;;;;;;6.62;100.00;97583.91;5059231;28;19943;-80
2021/12/03 05:41:48;;;;;;;;;;;;;;;6.57;100.00;97564.22;5076013;28;20037;-80
2021/12/03 05:44:15;;;;;;;;;;;;;;;6.59;100.00;97573.66;5096284;28;19959;-80
2021/12/03 05:46:42;;;;;;;;;;;;;;;6.77;100.00;97573.25;5079482;28;19969;-80
2021/12/03 05:49:09;;;;;;;;;;;;;;;6.60;100.00;97574.47;5063217;28;19927;-80
2021/12/03 05:51:37;;;;;;;;;;;;;;;6.59;100.00;97575.66;5046401;28;20056;-80
2021/12/03 05:54:04;;;;;;;;;;;;;;;6.72;100.00;97584.88;5079504;28;19963;-80
2021/12/03 05:56:31;;;;;;;;;;;;;;;6.54;100.00;97587.28;5062901;28;19990;-80
2021/12/03 05:58:59;;;;;;;;;;;;;;;6.71;100.00;97586.84;5079130;28;19920;-80
2021/12/03 06:01:26;;;;;;;;;;;;;;;6.65;100.00;97590.59;5079558;28;20416;-80
2021/12/03 06:03:53;;;;;;;;;;;;;;;6.74;100.00;97591.53;5097463;28;20007;-80
2021/12/03 06:06:21;;;;;;;;;;;;;;;7.04;100.00;97598.75;5079335;28;19920;-80
2021/12/03 06:08:48;;;;;;;;;;;;;;;7.08;100.00;97593.88;5096096;28;19973;-80
2021/12/03 06:11:15;;;;;;;;;;;;;;;7.35;100.00;97597.13;5079193;28;20327;-80
2021/12/03 06:13:42;;;;;;;;;;;;;;;7.34;100.00;97595.59;5078717;28;19942;-80
2021/12/03 06:16:11;;;;;;;;;;;;;;;7.33;100.00;97586.47;5079116;28;20373;-80
2021/12/03 06:18:38;;;;;;;;;;;;;;;7.51;100.00;97583.22;5062620;28;19947;-80
2021/12/03 06:21:07;;;;;;;;;;;;;;;7.35;100.00;97580.47;5097037;28;19920;-80
2021/12/03 06:23:34;;;;;;;;;;;;;;;7.47;100.00;97576.97;5079134;28;19935;-80
2021/12/03 06:26:02;;;;;;;;;;;;;;;7.52;100.00;97584.78;5079026;28;20305;-80
2021/12/03 06:28:30;;;;;;;;;;;;;;;7.29;100.00;97571.91;5096774;28;19956;-80
2021/12/03 06:30:57;;;;;;;;;;;;;;;7.42;100.00;97562.84;5078995;28;19927;-80
2021/12/03 06:33:24;;;;;;;;;;;;;;;7.60;100.00;97563.13;5062066;28;19924;-80
2021/12/03 06:35:52;;;;;;;;;;;;;;;7.67;100.00;97562.91;5096705;28;20018;-80
2021/12/03 06:38:19;;;;;;;;;;;;;;;7.54;100.00;97567.66;5045798;28;19920;-80
2021/12/03 06:40:49;;;;;;;;;;;;;;;7.72;100.00;97571.50;5096354;28;20402;-80
2021/12/03 06:43:16;;;;;;;;;;;;;;;7.70;100.00;97571.16;5078537;28;20343;-80
2021/12/03 06:45:43;;;;;;;;;;;;;;;7.97;100.00;97571.56;5096458;28;20405;-80
2021/12/03 06:48:10;;;;;;;;;;;;;;;7.86;100.00;97559.97;5078467;28;20259;-80
2021/12/03 06:50:38;;;;;;;;;;;;;;;7.76;100.00;97574.19;5096482;28;19930;-80
2021/12/03 06:53:12;;;;;;;;;;;;;;;7.83;100.00;97580.31;5078285;28;19965;-80
2021/12/03 06:56:05;;;;;;;;;;;;;;;8.01;100.00;97577.03;5096158;28;19920;-80
2021/12/03 06:58:26;;;;;;;;;;;;;;;7.70;100.00;97557.25;5096254;28;20414;-80
2021/12/03 07:00:54;;;;;;;;;;;;;;;7.39;100.00;97556.16;5096329;28;20015;-80
2021/12/03 07:03:21;;;;;;;;;;;;;;;7.89;100.00;97564.66;5078578;28;19927;-80
2021/12/03 07:05:48;;;;;;;;;;;;;;;7.74;100.00;97554.41;5061524;28;19928;-80
2021/12/03 07:08:15;;;;;;;;;;;;;;;7.53;100.00;97552.97;5096076;28;19962;-80
2021/12/03 07:10:42;;;;;;;;;;;;;;;7.87;100.00;97558.75;5077731;28;19920;-80
2021/12/03 07:13:09;;;;;;;;;;;;;;;7.87;100.00;97553.19;5061257;28;19920;-80
2021/12/03 07:15:36;;;;;;;;;;;;;;;7.77;100.00;97559.84;5095874;28;19920;-80
2021/12/03 07:18:04;;;;;;;;;;;;;;;7.43;100.00;97565.19;5077982;28;19927;-80
2021/12/03 07:20:31;;;;;;;;;;;;;;;7.42;100.00;97563.63;5061237;28;19927;-79
2021/12/03 07:22:58;;;;;;;;;;;;;;;7.62;100.00;97566.25;5077976;28;19924;-80
2021/12/03 07:25:25;;;;;;;;;;;;;;;7.49;100.00;97573.75;5095456;28;20375;-79
2021/12/03 07:27:52;;;;;;;;;;;;;;;7.41;100.00;97584.28;5058115;28;20270;-80
2021/12/03 07:30:20;;;;;;;;;;;;;;;7.54;100.00;97590.69;5059637;28;19928;-80
2021/12/03 07:32:48;;;;;;;;;;;;;;;7.58;100.00;97583.03;5102368;28;20347;-80
2021/12/03 07:35:15;;;;;;;;;;;;;;;7.47;100.00;97576.97;5051794;28;20363;-80
2021/12/03 07:37:43;;;;;;;;;;;;;;;7.49;100.00;97585.66;5100309;28;19973;-80
2021/12/03 07:40:11;;;;;;;;;;;;;;;7.76;100.00;97583.31;5063321;28;20001;-81
2021/12/03 07:42:38;;;;;;;;;;;;;;;7.90;100.00;97593.25;5059374;28;20275;-80
2021/12/03 07:45:06;;;;;;;;;;;;;;;7.69;100.00;97577.94;5063064;28;19920;-80
2021/12/03 07:47:33;;;;;;;;;;;;;;;7.83;100.00;97577.53;5085241;28;19945;-80
2021/12/03 07:50:00;;;;;;;;;;;;;;;7.58;100.00;97596.13;5071141;28;19926;-80
2021/12/03 07:52:28;;;;;;;;;;;;;;;7.77;100.00;97595.97;5068287;28;19959;-80
2021/12/03 07:54:55;;;;;;;;;;;;;;;7.69;100.00;97605.75;5065880;28;19931;-80
2021/12/03 07:57:21;;;;;;;;;;;;;;;7.50;100.00;97592.75;5075826;28;20328;-79
2021/12/03 07:59:48;;;;;;;;;;;;;;;7.65;100.00;97593.94;5066199;28;20274;-80
2021/12/03 08:02:15;;;;;;;;;;;;;;;7.74;100.00;97590.53;5103845;28;19926;-80
2021/12/03 08:04:43;;;;;;;;;;;;;;;7.61;100.00;97581.34;5066684;28;19973;-80
2021/12/03 08:07:10;;;;;;;;;;;;;;;7.69;100.00;97572.41;5048653;28;19920;-80
2021/12/03 08:09:37;;;;;;;;;;;;;;;7.75;100.00;97569.84;5065347;28;19920;-80
2021/12/03 08:12:06;;;;;;;;;;;;;;;7.69;100.00;97586.28;5073143;28;19920;-80
2021/12/03 08:14:33;;;;;;;;;;;;;;;7.80;100.00;97606.22;5059957;28;19927;-80
2021/12/03 08:17:00;;;;;;;;;;;;;;;7.78;100.00;97603.13;5076370;28;19924;-80
2021/12/03 08:19:27;;;;;;;;;;;;;;;7.62;100.00;97600.38;5076379;28;19920;-84
2021/12/03 08:21:54;;;;;;;;;;;;;;;7.70;100.00;97610.09;5060647;28;19927;-81
2021/12/03 08:24:21;;;;;;;;;;;;;;;7.59;100.00;97604.03;5076499;28;19920;-80
2021/12/03 08:26:49;;;;;;;;;;;;;;;7.45;100.00;97584.97;5076709;28;20355;-80
2021/12/03 08:29:15;;;;;;;;;;;;;;;7.62;100.00;97611.50;5094545;28;19927;-80
2021/12/03 08:31:43;;;;;;;;;;;;;;;7.49;100.00;97602.31;5094392;28;19969;-80
2021/12/03 08:34:10;;;;;;;;;;;;;;;7.50;100.00;97589.22;5076359;28;19927;-80
2021/12/03 08:36:38;;;;;;;;;;;;;;;7.54;100.00;97564.88;5059798;28;19943;-81
2021/12/03 08:39:05;;;;;;;;;;;;;;;7.43;100.00;97567.16;5060033;28;19929;-80
2021/12/03 08:41:34;;;;;;;;;;;;;;;7.41;100.00;97567.59;5076239;28;19949;-80
2021/12/03 08:44:02;;;;;;;;;;;;;;;7.65;100.00;97579.28;5066099;28;19924;-80
2021/12/03 08:46:35;;;;;;;;;;;;;;;7.76;100.00;97561.06;5075905;28;19930;-80
2021/12/03 08:54:51;;;;;;;;;;;;;;;8.10;100.00;97558.47;5072816;28;19926;-81
2021/12/03 08:57:38;;;;;;;;;;;;;;;7.85;100.00;97544.50;5085954;28;20008;-81
2021/12/03 09:00:11;;;;;;;;;;;;;;;7.97;100.00;97520.72;5076967;28;20358;-81
2021/12/03 09:02:39;;;;;;;;;;;;;;;7.86;100.00;97509.16;5111994;28;19999;-81
2021/12/03 09:05:07;;;;;;;;;;;;;;;7.88;100.00;97485.25;5111723;28;19919;-82
2021/12/03 09:07:34;;;;;;;;;;;;;;;7.98;100.00;97522.31;5111116;28;19969;-81
2021/12/03 09:10:01;;;;;;;;;;;;;;;8.14;100.00;97541.66;5111939;28;20308;-81
2021/12/03 09:12:28;;;;;;;;;;;;;;;8.19;100.00;97544.69;5093272;28;19919;-81
2021/12/03 09:14:58;;;;;;;;;;;;;;;7.98;100.00;97545.31;5099695;28;19920;-81
2021/12/03 09:22:55;;;;;;;;;;;;;;;8.17;100.00;97524.88;5043080;28;20400;-80
2021/12/03 09:25:30;;;;;;;;;;;;;;;8.17;100.00;97555.47;5063408;28;20020;-81
2021/12/03 09:27:59;;;;;;;;;;;;;;;8.17;100.00;97543.56;5080003;28;20009;-81
2021/12/03 09:30:28;;;;;;;;;;;;;;;8.32;100.00;97553.84;5082112;28;19920;-77
2021/12/03 09:32:57;;;;;;;;;;;;;;;8.24;100.00;97558.06;5097192;28;19920;-78
2021/12/03 09:35:24;;;;;;;;;;;;;;;8.24;100.00;97538.59;5087223;28;19927;-78
2021/12/03 09:37:51;;;;;;;;;;;;;;;8.49;100.00;97543.38;5059401;28;19920;-77
2021/12/03 09:40:24;;;;;;;;;;;;;;;8.39;100.00;97525.78;5099786;28;19927;-78
2021/12/03 09:42:52;;;;;;;;;;;;;;;8.40;100.00;97532.16;5079325;28;19920;-79
2021/12/03 09:45:21;;;;;;;;;;;;;;;8.49;100.00;97546.97;5062756;28;20282;-79
2021/12/03 09:47:50;;;;;;;;;;;;;;;8.66;100.00;97528.88;5079070;28;19923;-80
2021/12/03 09:50:17;;;;;;;;;;;;;;;8.64;100.00;97516.66;5097223;28;19931;-78
2021/12/03 09:55:13;;;;;;;;;;;;;;;8.74;100.00;97530.22;5062447;28;20027;-80
2021/12/03 09:57:53;;;;;;;;;;;;;;;8.54;100.00;97532.47;5096641;28;20350;-81
2021/12/03 10:01:10;;;;;;;;;;;;;;;8.86;100.00;97542.59;5114582;28;19920;-80
2021/12/03 10:03:32;;;;;;;;;;;;;;;9.03;100.00;97553.13;5100630;28;19972;-81
2021/12/03 10:14:32;;;;;;;;;;;;;;;8.73;100.00;97573.22;5078509;28;19920;-81
2021/12/03 10:20:18;;;;;;;;;;;;;;;9.44;100.00;97590.34;5060037;28;19924;-80
2021/12/03 10:49:04;;;;;;;;;;;;;;;9.75;100.00;97664.53;5049486;28;19921;-78
2021/12/03 10:57:24;;;;;;;;;;;;;;;9.20;100.00;97681.94;5048994;28;19934;-78
2021/12/03 11:11:05;;;;;;;;;;;;;;;9.60;100.00;97673.84;5092116;28;19928;-78
2021/12/03 11:39:09;;;;;;;;;;;;;;;9.33;100.00;97626.19;5051320;28;20272;-78
2021/12/03 12:18:14;;;;;;;;;;;;;;;9.24;100.00;97584.28;5012481;28;20012;-79
2021/12/03 12:37:51;;;;;;;;;;;;;;;9.67;100.00;97585.13;5035166;28;19924;-80
2021/12/03 12:40:41;;;;;;;;;;;;;;;9.61;100.00;97597.31;5051048;28;20063;-80
2021/12/03 13:09:07;;;;;;;;;;;;;;;9.61;100.00;97597.31;5052617;28;19921;-79
2021/12/03 14:44:21;;;;;;;;;;;;;;;9.22;100.00;97495.56;5095503;28;19955;-79
2021/12/03 14:52:14;;;;;;;;;;;;;;;9.21;100.00;97484.88;5078065;28;20267;-80
2021/12/03 14:54:51;;;;;;;;;;;;;;;9.13;100.00;97473.94;5077312;28;20485;-80
2021/12/03 14:57:30;;;;;;;;;;;;;;;9.69;100.00;97467.56;5077818;28;19924;-81
2021/12/03 15:00:15;;;;;;;;;;;;;;;10.04;100.00;97457.84;5114720;28;19928;-81
2021/12/03 15:03:16;;;;;;;;;;;;;;;10.15;100.00;97456.19;5098016;28;20011;-80
2021/12/03 15:08:28;;;;;;;;;;;;;;;10.05;100.00;97442.63;5116361;28;20370;-82
2021/12/03 16:06:20;;;;;;;;;;;;;;;9.70;100.00;97422.47;5094849;28;19924;-81
2021/12/03 16:08:49;;;;;;;;;;;;;;;9.21;100.00;97401.28;5095140;28;19924;-79
2021/12/03 16:11:24;;;;;;;;;;;;;;;8.57;100.00;97397.94;5094617;28;19924;-78
2021/12/03 16:14:40;;;;;;;;;;;;;;;8.69;100.00;97411.03;5094496;28;19924;-79
2021/12/03 16:17:10;;;;;;;;;;;;;;;8.46;100.00;97411.47;5091101;28;20031;-78
2021/12/03 16:52:46;;;;;;;;;;;;;;;8.95;100.00;97412.50;5030573;28;19925;-78
2021/12/03 16:55:14;;;;;;;;;;;;;;;9.57;100.00;97413.44;5031323;28;19931;-78
2021/12/03 16:57:43;;;;;;;;;;;;;;;9.79;100.00;97414.16;5031213;28;19932;-79
2021/12/03 17:03:25;;;;;;;;;;;;;;;9.97;100.00;97413.44;5018864;28;20363;-78
2021/12/03 17:47:23;;;;;;;;;;;;;;;10.56;100.00;97415.84;5114880;28;19923;-78
2021/12/03 17:49:49;;;;;;;;;;;;;;;10.51;100.00;97414.44;5104644;28;19927;-79
2021/12/03 17:57:37;;;;;;;;;;;;;;;10.42;100.00;97402.47;5097280;28;19931;-78
2021/12/03 18:00:09;;;;;;;;;;;;;;;10.50;100.00;97393.34;5097251;28;19949;-78
2021/12/03 18:02:51;;;;;;;;;;;;;;;10.55;100.00;97389.16;5078273;28;19928;-78
2021/12/03 18:05:31;;;;;;;;;;;;;;;10.52;100.00;97378.91;5078129;28;20023;-78
2021/12/03 18:08:14;;;;;;;;;;;;;;;10.25;100.00;97378.88;5078274;28;19931;-78
2021/12/03 18:52:23;;;;;;;;;;;;;;;10.18;100.00;97365.19;5071942;28;19964;-78
2021/12/03 18:55:05;;;;;;;;;;;;;;;10.31;100.00;97360.25;5095572;28;19924;-78
2021/12/03 18:57:39;;;;;;;;;;;;;;;10.32;100.00;97357.00;5077622;28;19931;-78
2021/12/03 19:00:10;;;;;;;;;;;;;;;10.38;100.00;97360.75;5077370;28;19969;-78
2021/12/03 19:02:39;;;;;;;;;;;;;;;10.29;100.00;97349.56;5077305;28;19982;-78
2021/12/03 19:05:16;;;;;;;;;;;;;;;10.25;100.00;97350.94;5077312;28;19938;-78
2021/12/03 19:07:48;;;;;;;;;;;;;;;10.21;100.00;97339.13;5095116;28;19928;-78
2021/12/03 19:10:20;;;;;;;;;;;;;;;10.32;100.00;97339.47;5095129;28;19931;-78
2021/12/03 19:12:56;;;;;;;;;;;;;;;10.22;100.00;97335.13;5076967;28;19931;-78
2021/12/03 19:15:24;;;;;;;;;;;;;;;9.85;100.00;97327.84;5094798;28;19934;-78
2021/12/03 19:17:52;;;;;;;;;;;;;;;10.19;100.00;97324.91;5094881;28;20009;-78
2021/12/03 19:20:27;;;;;;;;;;;;;;;9.78;100.00;97317.00;5095083;28;19958;-78
2021/12/03 19:22:55;;;;;;;;;;;;;;;9.87;100.00;97319.81;5094959;28;19925;-78
2021/12/03 19:25:22;;;;;;;;;;;;;;;9.76;100.00;97311.09;5060324;28;19931;-78
2021/12/03 19:27:49;;;;;;;;;;;;;;;9.50;100.00;97312.53;5077092;28;20294;-78
2021/12/03 19:30:16;;;;;;;;;;;;;;;9.43;100.00;97319.19;5076383;28;19924;-78
2021/12/03 19:32:44;;;;;;;;;;;;;;;8.92;100.00;97318.72;5094581;28;20417;-78
2021/12/03 19:35:11;;;;;;;;;;;;;;;8.99;100.00;97307.34;5060121;28;19931;-78
2021/12/03 19:37:38;;;;;;;;;;;;;;;9.31;100.00;97306.13;5094520;28;20340;-78
2021/12/03 19:40:10;;;;;;;;;;;;;;;9.17;100.00;97306.66;5076379;28;19963;-78
2021/12/03 19:42:49;;;;;;;;;;;;;;;9.19;100.00;97309.78;5076618;28;19924;-78
2021/12/03 19:45:19;;;;;;;;;;;;;;;9.14;100.00;97307.56;5076133;28;19993;-78
2021/12/03 19:50:32;;;;;;;;;;;;;;;9.28;100.00;97311.81;5094269;28;19932;-78
2021/12/03 19:53:08;;;;;;;;;;;;;;;9.27;100.00;97304.69;5094323;28;19924;-77
2021/12/03 19:55:38;;;;;;;;;;;;;;;9.40;100.00;97308.16;5094270;28;19924;-78
2021/12/03 19:58:06;;;;;;;;;;;;;;;9.52;100.00;97299.72;5094241;28;19924;-78
2021/12/03 20:00:35;;;;;;;;;;;;;;;9.62;100.00;97298.50;5093595;28;19928;-78
2021/12/03 20:03:02;;;;;;;;;;;;;;;9.54;100.00;97291.69;5093630;28;20299;-78
2021/12/03 20:05:30;;;;;;;;;;;;;;;9.66;100.00;97281.63;5075567;28;19955;-77
2021/12/03 20:08:00;;;;;;;;;;;;;;;9.68;100.00;97282.72;5076231;28;19963;-77
2021/12/03 20:10:28;;;;;;;;;;;;;;;9.75;100.00;97278.88;5093940;28;19924;-78
2021/12/03 20:12:56;;;;;;;;;;;;;;;9.76;100.00;97274.84;5075378;28;19999;-78
2021/12/03 20:15:29;;;;;;;;;;;;;;;9.52;100.00;97268.25;5093902;28;19924;-78
2021/12/03 20:17:59;;;;;;;;;;;;;;;9.55;100.00;97264.56;5093831;28;19925;-78
2021/12/03 20:20:27;;;;;;;;;;;;;;;9.16;100.00;97271.69;5093745;28;20500;-78
2021/12/03 20:23:00;;;;;;;;;;;;;;;8.84;100.00;97272.91;5075729;28;19925;-78
2021/12/03 20:28:08;;;;;;;;;;;;;;;8.36;100.00;97284.56;5093383;28;19931;-78
2021/12/03 20:30:49;;;;;;;;;;;;;;;8.45;100.00;97278.34;5093484;28;19924;-78
2021/12/03 20:38:55;;;;;;;;;;;;;;;8.34;100.00;97295.41;5093430;28;19924;-78
2021/12/03 20:41:38;;;;;;;;;;;;;;;8.21;100.00;97291.84;5093382;28;19928;-78
2021/12/03 20:46:45;;;;;;;;;;;;;;;8.05;100.00;97289.22;5058588;28;19928;-76